sensor_id;sensor_type;location;lat;lon;timestamp;temperature;humidity
12303;DHT22;6214;48.012;7.862;2022-11-20T00:01:27;9.90;99.90
12303;DHT22;6214;48.012;7.862;2022-11-20T00:03:59;9.90;99.90
12303;DHT22;6214;48.012;7.862;2022-11-20T00:06:27;9.90;99.90
12303;DHT22;6214;48.012;7.862;2022-11-20T00:08:56;9.90;99.90
12303;DHT22;6214;48.012;7.862;2022-11-20T00:11:24;9.80;99.90
12303;DHT22;6214;48.012;7.862;2022-11-20T00:13:54;9.80;99.90
12303;DHT22;6214;48.012;7.862;2022-11-20T00:16:23;10.00;99.90
12303;DHT22;6214;48.012;7.862;2022-11-20T00:18:51;10.00;99.90
12303;DHT22;6214;48.012;7.862;2022-11-20T00:21:23;10.10;99.90
12303;DHT22;6214;48.012;7.862;2022-11-20T00:23:54;10.00;99.90
12303;DHT22;6214;48.012;7.862;2022-11-20T00:26:23;10.00;99.90
12303;DHT22;6214;48.012;7.862;2022-11-20T00:29:00;10.00;99.90
12303;DHT22;6214;48.012;7.862;2022-11-20T00:31:29;9.90;99.90
12303;DHT22;6214;48.012;7.862;2022-11-20T00:33:56;9.80;99.90
12303;DHT22;6214;48.012;7.862;2022-11-20T00:36:25;9.70;99.90
12303;DHT22;6214;48.012;7.862;2022-11-20T00:38:54;9.80;99.90
12303;DHT22;6214;48.012;7.862;2022-11-20T00:41:21;9.80;99.90
12303;DHT22;6214;48.012;7.862;2022-11-20T00:43:49;9.90;99.90
12303;DHT22;6214;48.012;7.862;2022-11-20T00:46:19;9.80;99.90
12303;DHT22;6214;48.012;7.862;2022-11-20T00:48:46;9.80;99.90
12303;DHT22;6214;48.012;7.862;2022-11-20T00:51:16;9.70;99.90
12303;DHT22;6214;48.012;7.862;2022-11-20T00:53:44;9.70;99.90
12303;DHT22;6214;48.012;7.862;2022-11-20T00:56:13;9.70;99.90
12303;DHT22;6214;48.012;7.862;2022-11-20T00:58:42;9.70;99.90
12303;DHT22;6214;48.012;7.862;2022-11-20T01:01:12;9.70;99.90
12303;DHT22;6214;48.012;7.862;2022-11-20T01:03:42;9.60;99.90
12303;DHT22;6214;48.012;7.862;2022-11-20T01:06:12;9.60;99.90
12303;DHT22;6214;48.012;7.862;2022-11-20T01:08:41;9.60;99.90
12303;DHT22;6214;48.012;7.862;2022-11-20T01:11:13;9.60;99.90
12303;DHT22;6214;48.012;7.862;2022-11-20T01:13:41;9.60;99.90
12303;DHT22;6214;48.012;7.862;2022-11-20T01:16:21;9.80;99.90
12303;DHT22;6214;48.012;7.862;2022-11-20T01:18:51;9.70;99.90
12303;DHT22;6214;48.012;7.862;2022-11-20T01:21:21;9.70;99.90
12303;DHT22;6214;48.012;7.862;2022-11-20T01:23:49;9.70;99.90
12303;DHT22;6214;48.012;7.862;2022-11-20T01:26:19;9.70;99.90
12303;DHT22;6214;48.012;7.862;2022-11-20T01:28:47;9.80;99.90
12303;DHT22;6214;48.012;7.862;2022-11-20T01:31:25;9.60;99.90
12303;DHT22;6214;48.012;7.862;2022-11-20T01:33:55;9.60;99.90
12303;DHT22;6214;48.012;7.862;2022-11-20T01:36:25;9.60;99.90
12303;DHT22;6214;48.012;7.862;2022-11-20T01:38:53;9.70;99.90
12303;DHT22;6214;48.012;7.862;2022-11-20T01:41:22;9.70;99.90
12303;DHT22;6214;48.012;7.862;2022-11-20T01:44:11;9.70;99.90
12303;DHT22;6214;48.012;7.862;2022-11-20T01:46:42;9.70;99.90
12303;DHT22;6214;48.012;7.862;2022-11-20T01:49:21;9.60;99.90
12303;DHT22;6214;48.012;7.862;2022-11-20T01:51:53;9.60;99.90
12303;DHT22;6214;48.012;7.862;2022-11-20T01:54:28;9.60;99.90
12303;DHT22;6214;48.012;7.862;2022-11-20T01:56:59;9.50;99.90
12303;DHT22;6214;48.012;7.862;2022-11-20T01:59:28;9.60;99.90
12303;DHT22;6214;48.012;7.862;2022-11-20T02:01:55;9.70;99.90
12303;DHT22;6214;48.012;7.862;2022-11-20T02:04:23;9.60;99.90
12303;DHT22;6214;48.012;7.862;2022-11-20T02:07:09;9.60;99.90
12303;DHT22;6214;48.012;7.862;2022-11-20T02:09:37;9.60;99.90
12303;DHT22;6214;48.012;7.862;2022-11-20T02:12:04;9.60;99.90
12303;DHT22;6214;48.012;7.862;2022-11-20T02:14:32;9.70;99.90
12303;DHT22;6214;48.012;7.862;2022-11-20T02:16:59;9.70;99.90
12303;DHT22;6214;48.012;7.862;2022-11-20T02:19:31;9.70;99.90
12303;DHT22;6214;48.012;7.862;2022-11-20T02:22:14;9.70;99.90
12303;DHT22;6214;48.012;7.862;2022-11-20T02:24:45;9.80;99.90
12303;DHT22;6214;48.012;7.862;2022-11-20T02:27:14;9.80;99.90
12303;DHT22;6214;48.012;7.862;2022-11-20T02:29:44;9.80;99.90
12303;DHT22;6214;48.012;7.862;2022-11-20T02:32:39;9.80;99.90
12303;DHT22;6214;48.012;7.862;2022-11-20T02:35:37;9.80;99.90
12303;DHT22;6214;48.012;7.862;2022-11-20T02:38:00;9.80;99.90
12303;DHT22;6214;48.012;7.862;2022-11-20T02:40:28;9.60;99.90
12303;DHT22;6214;48.012;7.862;2022-11-20T02:42:55;9.70;99.90
12303;DHT22;6214;48.012;7.862;2022-11-20T02:45:24;9.60;99.90
12303;DHT22;6214;48.012;7.862;2022-11-20T02:47:52;9.60;99.90
12303;DHT22;6214;48.012;7.862;2022-11-20T02:50:19;9.60;99.90
12303;DHT22;6214;48.012;7.862;2022-11-20T02:52:46;9.70;99.90
12303;DHT22;6214;48.012;7.862;2022-11-20T02:55:13;9.70;99.90
12303;DHT22;6214;48.012;7.862;2022-11-20T02:57:40;9.70;99.90
12303;DHT22;6214;48.012;7.862;2022-11-20T03:00:07;9.80;99.90
12303;DHT22;6214;48.012;7.862;2022-11-20T03:02:35;9.80;99.90
12303;DHT22;6214;48.012;7.862;2022-11-20T03:05:02;9.80;99.90
12303;DHT22;6214;48.012;7.862;2022-11-20T03:07:29;9.70;99.90
12303;DHT22;6214;48.012;7.862;2022-11-20T03:09:56;9.60;99.90
12303;DHT22;6214;48.012;7.862;2022-11-20T03:12:23;9.60;99.90
12303;DHT22;6214;48.012;7.862;2022-11-20T03:14:50;9.60;99.90
12303;DHT22;6214;48.012;7.862;2022-11-20T03:17:19;9.70;99.90
12303;DHT22;6214;48.012;7.862;2022-11-20T03:19:46;9.70;99.90
12303;DHT22;6214;48.012;7.862;2022-11-20T03:22:13;9.80;99.90
12303;DHT22;6214;48.012;7.862;2022-11-20T03:24:40;9.90;99.90
12303;DHT22;6214;48.012;7.862;2022-11-20T03:27:07;9.90;99.90
12303;DHT22;6214;48.012;7.862;2022-11-20T03:29:35;9.80;99.90
12303;DHT22;6214;48.012;7.862;2022-11-20T03:32:02;9.70;99.90
12303;DHT22;6214;48.012;7.862;2022-11-20T03:34:29;9.70;99.90
12303;DHT22;6214;48.012;7.862;2022-11-20T03:36:56;9.70;99.90
12303;DHT22;6214;48.012;7.862;2022-11-20T03:39:23;9.60;99.90
12303;DHT22;6214;48.012;7.862;2022-11-20T03:41:50;9.60;99.90
12303;DHT22;6214;48.012;7.862;2022-11-20T03:44:17;9.70;99.90
12303;DHT22;6214;48.012;7.862;2022-11-20T03:46:47;9.70;99.90
12303;DHT22;6214;48.012;7.862;2022-11-20T03:49:14;9.70;99.90
12303;DHT22;6214;48.012;7.862;2022-11-20T03:51:41;9.70;99.90
12303;DHT22;6214;48.012;7.862;2022-11-20T03:54:08;9.70;99.90
12303;DHT22;6214;48.012;7.862;2022-11-20T03:56:37;9.70;99.90
12303;DHT22;6214;48.012;7.862;2022-11-20T03:59:05;9.70;99.90
12303;DHT22;6214;48.012;7.862;2022-11-20T04:01:35;9.80;99.90
12303;DHT22;6214;48.012;7.862;2022-11-20T04:04:03;9.80;99.90
12303;DHT22;6214;48.012;7.862;2022-11-20T04:06:34;9.80;99.90
12303;DHT22;6214;48.012;7.862;2022-11-20T04:09:02;9.80;99.90
12303;DHT22;6214;48.012;7.862;2022-11-20T04:11:31;9.70;99.90
12303;DHT22;6214;48.012;7.862;2022-11-20T04:14:03;9.70;99.90
12303;DHT22;6214;48.012;7.862;2022-11-20T04:16:32;9.60;99.90
12303;DHT22;6214;48.012;7.862;2022-11-20T04:19:02;9.70;99.90
12303;DHT22;6214;48.012;7.862;2022-11-20T04:21:29;9.70;99.90
12303;DHT22;6214;48.012;7.862;2022-11-20T04:23:56;9.70;99.90
12303;DHT22;6214;48.012;7.862;2022-11-20T04:26:25;9.70;99.90
12303;DHT22;6214;48.012;7.862;2022-11-20T04:28:53;9.70;99.90
12303;DHT22;6214;48.012;7.862;2022-11-20T04:31:23;9.60;99.90
12303;DHT22;6214;48.012;7.862;2022-11-20T04:33:50;9.60;99.90
12303;DHT22;6214;48.012;7.862;2022-11-20T04:36:19;9.70;99.90
12303;DHT22;6214;48.012;7.862;2022-11-20T04:38:50;9.70;99.90
12303;DHT22;6214;48.012;7.862;2022-11-20T04:41:24;9.80;99.90
12303;DHT22;6214;48.012;7.862;2022-11-20T04:43:54;9.70;99.90
12303;DHT22;6214;48.012;7.862;2022-11-20T04:46:27;9.70;99.90
12303;DHT22;6214;48.012;7.862;2022-11-20T04:48:54;9.70;99.90
12303;DHT22;6214;48.012;7.862;2022-11-20T04:51:22;9.70;99.90
12303;DHT22;6214;48.012;7.862;2022-11-20T04:53:53;9.60;99.90
12303;DHT22;6214;48.012;7.862;2022-11-20T04:56:20;9.50;99.90
12303;DHT22;6214;48.012;7.862;2022-11-20T04:58:47;9.60;99.90
12303;DHT22;6214;48.012;7.862;2022-11-20T05:01:20;9.50;99.90
12303;DHT22;6214;48.012;7.862;2022-11-20T05:03:47;9.50;99.90
12303;DHT22;6214;48.012;7.862;2022-11-20T05:06:17;9.40;99.90
12303;DHT22;6214;48.012;7.862;2022-11-20T05:08:45;9.50;99.90
12303;DHT22;6214;48.012;7.862;2022-11-20T05:11:15;9.50;99.90
12303;DHT22;6214;48.012;7.862;2022-11-20T05:13:42;9.50;99.90
12303;DHT22;6214;48.012;7.862;2022-11-20T05:16:11;9.50;99.90
12303;DHT22;6214;48.012;7.862;2022-11-20T05:18:40;11.30;99.90
12303;DHT22;6214;48.012;7.862;2022-11-20T05:21:08;9.50;99.90
12303;DHT22;6214;48.012;7.862;2022-11-20T05:23:36;9.50;99.90
12303;DHT22;6214;48.012;7.862;2022-11-20T05:26:04;9.50;99.90
12303;DHT22;6214;48.012;7.862;2022-11-20T05:28:32;9.50;99.90
12303;DHT22;6214;48.012;7.862;2022-11-20T05:33:34;9.50;99.90
12303;DHT22;6214;48.012;7.862;2022-11-20T05:36:02;9.50;99.90
12303;DHT22;6214;48.012;7.862;2022-11-20T05:38:30;9.50;99.90
12303;DHT22;6214;48.012;7.862;2022-11-20T05:41:11;9.50;99.90
12303;DHT22;6214;48.012;7.862;2022-11-20T05:43:40;9.50;99.90
12303;DHT22;6214;48.012;7.862;2022-11-20T05:46:09;9.50;99.90
12303;DHT22;6214;48.012;7.862;2022-11-20T05:48:37;9.50;99.90
12303;DHT22;6214;48.012;7.862;2022-11-20T05:51:07;9.50;99.90
12303;DHT22;6214;48.012;7.862;2022-11-20T05:53:36;9.50;99.90
12303;DHT22;6214;48.012;7.862;2022-11-20T05:56:06;9.60;99.90
12303;DHT22;6214;48.012;7.862;2022-11-20T05:58:33;9.60;99.90
12303;DHT22;6214;48.012;7.862;2022-11-20T06:01:11;9.70;99.90
12303;DHT22;6214;48.012;7.862;2022-11-20T06:03:39;9.70;99.90
12303;DHT22;6214;48.012;7.862;2022-11-20T06:06:06;9.60;99.90
12303;DHT22;6214;48.012;7.862;2022-11-20T06:08:34;9.60;99.90
12303;DHT22;6214;48.012;7.862;2022-11-20T06:11:10;9.60;99.90
12303;DHT22;6214;48.012;7.862;2022-11-20T06:13:37;9.60;99.90
12303;DHT22;6214;48.012;7.862;2022-11-20T06:16:09;9.50;99.90
12303;DHT22;6214;48.012;7.862;2022-11-20T06:18:36;9.60;99.90
12303;DHT22;6214;48.012;7.862;2022-11-20T06:23:38;9.50;99.90
12303;DHT22;6214;48.012;7.862;2022-11-20T06:26:09;9.50;99.90
12303;DHT22;6214;48.012;7.862;2022-11-20T06:28:36;9.50;99.90
12303;DHT22;6214;48.012;7.862;2022-11-20T06:31:04;9.50;99.90
12303;DHT22;6214;48.012;7.862;2022-11-20T06:33:32;9.60;99.90
12303;DHT22;6214;48.012;7.862;2022-11-20T06:36:00;9.60;99.90
12303;DHT22;6214;48.012;7.862;2022-11-20T06:38:34;9.60;99.90
12303;DHT22;6214;48.012;7.862;2022-11-20T06:41:03;9.50;99.90
12303;DHT22;6214;48.012;7.862;2022-11-20T06:43:30;9.40;99.90
12303;DHT22;6214;48.012;7.862;2022-11-20T06:45:58;9.50;99.90
12303;DHT22;6214;48.012;7.862;2022-11-20T06:48:27;9.50;99.90
12303;DHT22;6214;48.012;7.862;2022-11-20T06:50:55;9.50;99.90
12303;DHT22;6214;48.012;7.862;2022-11-20T06:53:23;9.40;99.90
12303;DHT22;6214;48.012;7.862;2022-11-20T06:55:51;9.40;99.90
12303;DHT22;6214;48.012;7.862;2022-11-20T06:58:18;9.40;99.90
12303;DHT22;6214;48.012;7.862;2022-11-20T07:00:45;9.30;99.90
12303;DHT22;6214;48.012;7.862;2022-11-20T07:03:13;9.40;99.90
12303;DHT22;6214;48.012;7.862;2022-11-20T07:05:40;9.40;99.90
12303;DHT22;6214;48.012;7.862;2022-11-20T07:08:07;9.50;99.90
12303;DHT22;6214;48.012;7.862;2022-11-20T07:10:35;9.60;99.90
12303;DHT22;6214;48.012;7.862;2022-11-20T07:13:02;9.50;99.90
12303;DHT22;6214;48.012;7.862;2022-11-20T07:15:29;9.50;99.90
12303;DHT22;6214;48.012;7.862;2022-11-20T07:18:00;9.60;99.90
12303;DHT22;6214;48.012;7.862;2022-11-20T07:20:27;9.50;99.90
12303;DHT22;6214;48.012;7.862;2022-11-20T07:22:55;9.60;99.90
12303;DHT22;6214;48.012;7.862;2022-11-20T07:25:24;9.70;99.90
12303;DHT22;6214;48.012;7.862;2022-11-20T07:27:51;9.70;99.90
12303;DHT22;6214;48.012;7.862;2022-11-20T07:30:18;9.60;99.90
12303;DHT22;6214;48.012;7.862;2022-11-20T07:32:52;9.70;99.90
12303;DHT22;6214;48.012;7.862;2022-11-20T07:35:19;9.70;99.90
12303;DHT22;6214;48.012;7.862;2022-11-20T07:37:46;9.80;99.90
12303;DHT22;6214;48.012;7.862;2022-11-20T07:40:16;9.80;99.90
12303;DHT22;6214;48.012;7.862;2022-11-20T07:42:53;9.80;99.90
12303;DHT22;6214;48.012;7.862;2022-11-20T07:45:23;9.80;99.90
12303;DHT22;6214;48.012;7.862;2022-11-20T07:47:51;9.80;99.90
12303;DHT22;6214;48.012;7.862;2022-11-20T07:50:18;8.50;99.90
12303;DHT22;6214;48.012;7.862;2022-11-20T07:52:46;9.90;99.90
12303;DHT22;6214;48.012;7.862;2022-11-20T07:55:13;9.90;99.90
12303;DHT22;6214;48.012;7.862;2022-11-20T07:57:40;9.80;99.90
12303;DHT22;6214;48.012;7.862;2022-11-20T08:00:09;9.80;99.90
12303;DHT22;6214;48.012;7.862;2022-11-20T08:02:38;9.80;99.90
12303;DHT22;6214;48.012;7.862;2022-11-20T08:05:09;9.80;99.90
12303;DHT22;6214;48.012;7.862;2022-11-20T08:07:38;9.70;99.90
12303;DHT22;6214;48.012;7.862;2022-11-20T08:10:06;9.70;99.90
12303;DHT22;6214;48.012;7.862;2022-11-20T08:12:34;9.60;99.90
12303;DHT22;6214;48.012;7.862;2022-11-20T08:15:20;9.60;99.90
12303;DHT22;6214;48.012;7.862;2022-11-20T08:17:47;9.50;99.90
12303;DHT22;6214;48.012;7.862;2022-11-20T08:20:34;9.50;99.90
12303;DHT22;6214;48.012;7.862;2022-11-20T08:23:03;9.50;99.90
12303;DHT22;6214;48.012;7.862;2022-11-20T08:25:36;9.40;99.90
12303;DHT22;6214;48.012;7.862;2022-11-20T08:28:07;9.50;99.90
12303;DHT22;6214;48.012;7.862;2022-11-20T08:30:46;9.60;99.90
12303;DHT22;6214;48.012;7.862;2022-11-20T08:33:13;9.60;99.90
12303;DHT22;6214;48.012;7.862;2022-11-20T08:35:40;9.60;99.90
12303;DHT22;6214;48.012;7.862;2022-11-20T08:38:09;9.70;99.90
12303;DHT22;6214;48.012;7.862;2022-11-20T08:40:36;9.60;99.90
12303;DHT22;6214;48.012;7.862;2022-11-20T08:43:03;9.60;99.90
12303;DHT22;6214;48.012;7.862;2022-11-20T08:45:31;9.70;99.90
12303;DHT22;6214;48.012;7.862;2022-11-20T08:48:04;9.70;99.90
12303;DHT22;6214;48.012;7.862;2022-11-20T08:50:31;9.70;99.90
12303;DHT22;6214;48.012;7.862;2022-11-20T08:53:06;9.70;99.90
12303;DHT22;6214;48.012;7.862;2022-11-20T08:55:33;9.80;99.90
12303;DHT22;6214;48.012;7.862;2022-11-20T08:58:06;9.80;99.90
12303;DHT22;6214;48.012;7.862;2022-11-20T09:00:34;9.80;99.90
12303;DHT22;6214;48.012;7.862;2022-11-20T09:03:01;9.80;99.90
12303;DHT22;6214;48.012;7.862;2022-11-20T09:05:29;9.80;99.90
12303;DHT22;6214;48.012;7.862;2022-11-20T09:07:57;9.80;99.90
12303;DHT22;6214;48.012;7.862;2022-11-20T09:10:25;9.90;99.90
12303;DHT22;6214;48.012;7.862;2022-11-20T09:12:52;9.90;99.90
12303;DHT22;6214;48.012;7.862;2022-11-20T09:15:22;9.80;99.90
12303;DHT22;6214;48.012;7.862;2022-11-20T09:18:00;9.80;99.90
12303;DHT22;6214;48.012;7.862;2022-11-20T09:20:29;9.80;99.90
12303;DHT22;6214;48.012;7.862;2022-11-20T09:22:57;9.80;99.90
12303;DHT22;6214;48.012;7.862;2022-11-20T09:25:24;9.90;99.90
12303;DHT22;6214;48.012;7.862;2022-11-20T09:27:58;9.90;99.90
12303;DHT22;6214;48.012;7.862;2022-11-20T09:30:26;10.00;99.90
12303;DHT22;6214;48.012;7.862;2022-11-20T09:32:53;10.10;99.90
12303;DHT22;6214;48.012;7.862;2022-11-20T09:35:20;10.10;99.90
12303;DHT22;6214;48.012;7.862;2022-11-20T09:37:47;10.10;99.90
12303;DHT22;6214;48.012;7.862;2022-11-20T09:40:21;10.10;99.90
12303;DHT22;6214;48.012;7.862;2022-11-20T09:56:39;10.40;99.90
12303;DHT22;6214;48.012;7.862;2022-11-20T09:59:19;10.60;99.90
12303;DHT22;6214;48.012;7.862;2022-11-20T10:01:50;10.80;99.90
12303;DHT22;6214;48.012;7.862;2022-11-20T10:04:19;10.70;99.90
12303;DHT22;6214;48.012;7.862;2022-11-20T10:09:54;10.60;99.90
12303;DHT22;6214;48.012;7.862;2022-11-20T10:16:00;10.60;99.90
12303;DHT22;6214;48.012;7.862;2022-11-20T10:24:02;10.60;99.90
12303;DHT22;6214;48.012;7.862;2022-11-20T10:31:55;10.60;99.90
12303;DHT22;6214;48.012;7.862;2022-11-20T10:34:25;10.60;99.90
12303;DHT22;6214;48.012;7.862;2022-11-20T10:37:13;10.50;99.90
12303;DHT22;6214;48.012;7.862;2022-11-20T10:42:17;10.60;99.90
12303;DHT22;6214;48.012;7.862;2022-11-20T10:44:52;10.50;99.90
12303;DHT22;6214;48.012;7.862;2022-11-20T10:47:36;10.60;99.90
12303;DHT22;6214;48.012;7.862;2022-11-20T10:50:08;10.70;99.90
12303;DHT22;6214;48.012;7.862;2022-11-20T10:55:40;10.80;99.90
12303;DHT22;6214;48.012;7.862;2022-11-20T10:58:28;10.90;99.90
12303;DHT22;6214;48.012;7.862;2022-11-20T11:01:11;10.90;99.90
12303;DHT22;6214;48.012;7.862;2022-11-20T11:03:41;10.90;99.90
12303;DHT22;6214;48.012;7.862;2022-11-20T11:06:32;11.00;99.90
12303;DHT22;6214;48.012;7.862;2022-11-20T11:09:06;11.00;99.90
12303;DHT22;6214;48.012;7.862;2022-11-20T11:11:38;11.20;99.90
12303;DHT22;6214;48.012;7.862;2022-11-20T11:14:13;11.10;99.90
12303;DHT22;6214;48.012;7.862;2022-11-20T11:16:53;11.20;99.90
12303;DHT22;6214;48.012;7.862;2022-11-20T11:19:20;11.40;99.90
12303;DHT22;6214;48.012;7.862;2022-11-20T11:21:56;11.40;99.90
12303;DHT22;6214;48.012;7.862;2022-11-20T11:27:14;11.50;99.90
12303;DHT22;6214;48.012;7.862;2022-11-20T11:29:45;11.60;99.90
12303;DHT22;6214;48.012;7.862;2022-11-20T11:32:20;11.50;99.90
12303;DHT22;6214;48.012;7.862;2022-11-20T11:35:20;11.60;99.90
12303;DHT22;6214;48.012;7.862;2022-11-20T11:37:47;11.70;99.90
12303;DHT22;6214;48.012;7.862;2022-11-20T11:40:17;11.70;99.90
12303;DHT22;6214;48.012;7.862;2022-11-20T11:42:59;11.60;99.90
12303;DHT22;6214;48.012;7.862;2022-11-20T11:45:27;11.40;99.90
12303;DHT22;6214;48.012;7.862;2022-11-20T11:47:56;11.40;99.90
12303;DHT22;6214;48.012;7.862;2022-11-20T11:50:26;11.40;99.90
12303;DHT22;6214;48.012;7.862;2022-11-20T12:00:57;11.20;99.90
12303;DHT22;6214;48.012;7.862;2022-11-20T12:03:29;11.20;99.90
12303;DHT22;6214;48.012;7.862;2022-11-20T12:06:11;11.30;99.90
12303;DHT22;6214;48.012;7.862;2022-11-20T12:08:59;11.40;99.90
12303;DHT22;6214;48.012;7.862;2022-11-20T12:11:40;11.50;99.90
12303;DHT22;6214;48.012;7.862;2022-11-20T12:16:51;11.80;99.90
12303;DHT22;6214;48.012;7.862;2022-11-20T12:19:19;11.80;99.90
12303;DHT22;6214;48.012;7.862;2022-11-20T12:25:07;12.10;99.90
12303;DHT22;6214;48.012;7.862;2022-11-20T12:30:15;12.20;99.90
12303;DHT22;6214;48.012;7.862;2022-11-20T12:41:06;12.50;99.90
12303;DHT22;6214;48.012;7.862;2022-11-20T12:44:30;12.50;99.90
12303;DHT22;6214;48.012;7.862;2022-11-20T12:52:52;11.90;99.90
12303;DHT22;6214;48.012;7.862;2022-11-20T13:00:43;11.60;99.90
12303;DHT22;6214;48.012;7.862;2022-11-20T13:06:10;11.20;99.90
12303;DHT22;6214;48.012;7.862;2022-11-20T13:08:48;11.20;99.90
12303;DHT22;6214;48.012;7.862;2022-11-20T13:16:38;11.40;99.90
12303;DHT22;6214;48.012;7.862;2022-11-20T13:19:12;11.50;99.90
12303;DHT22;6214;48.012;7.862;2022-11-20T13:21:42;11.60;99.90
12303;DHT22;6214;48.012;7.862;2022-11-20T13:27:17;11.60;99.90
12303;DHT22;6214;48.012;7.862;2022-11-20T13:29:57;11.70;99.90
12303;DHT22;6214;48.012;7.862;2022-11-20T13:32:26;11.70;99.90
12303;DHT22;6214;48.012;7.862;2022-11-20T13:35:03;11.80;99.90
12303;DHT22;6214;48.012;7.862;2022-11-20T13:37:36;11.80;99.90
12303;DHT22;6214;48.012;7.862;2022-11-20T13:45:22;11.50;99.90
12303;DHT22;6214;48.012;7.862;2022-11-20T13:47:50;11.40;99.90
12303;DHT22;6214;48.012;7.862;2022-11-20T13:50:18;11.30;99.90
12303;DHT22;6214;48.012;7.862;2022-11-20T13:52:59;11.20;99.90
12303;DHT22;6214;48.012;7.862;2022-11-20T13:55:50;11.20;99.90
12303;DHT22;6214;48.012;7.862;2022-11-20T13:58:52;11.10;99.90
12303;DHT22;6214;48.012;7.862;2022-11-20T14:01:25;11.10;99.90
12303;DHT22;6214;48.012;7.862;2022-11-20T14:03:53;11.20;99.90
12303;DHT22;6214;48.012;7.862;2022-11-20T14:06:42;11.20;99.90
12303;DHT22;6214;48.012;7.862;2022-11-20T14:11:53;11.50;99.90
12303;DHT22;6214;48.012;7.862;2022-11-20T14:14:22;11.40;99.90
12303;DHT22;6214;48.012;7.862;2022-11-20T14:16:50;11.30;99.90
12303;DHT22;6214;48.012;7.862;2022-11-20T14:21:51;11.20;99.90
12303;DHT22;6214;48.012;7.862;2022-11-20T14:24:23;11.20;99.90
12303;DHT22;6214;48.012;7.862;2022-11-20T14:26:52;11.20;99.90
12303;DHT22;6214;48.012;7.862;2022-11-20T14:29:23;11.10;99.90
12303;DHT22;6214;48.012;7.862;2022-11-20T14:31:54;11.00;99.90
12303;DHT22;6214;48.012;7.862;2022-11-20T14:34:25;11.00;99.90
12303;DHT22;6214;48.012;7.862;2022-11-20T14:36:57;11.00;99.90
12303;DHT22;6214;48.012;7.862;2022-11-20T14:39:35;11.00;99.90
12303;DHT22;6214;48.012;7.862;2022-11-20T14:42:23;11.00;99.90
12303;DHT22;6214;48.012;7.862;2022-11-20T14:44:52;10.90;99.90
12303;DHT22;6214;48.012;7.862;2022-11-20T14:47:24;10.90;99.90
12303;DHT22;6214;48.012;7.862;2022-11-20T14:49:53;11.00;99.90
12303;DHT22;6214;48.012;7.862;2022-11-20T14:52:25;10.90;99.90
12303;DHT22;6214;48.012;7.862;2022-11-20T14:54:54;10.90;99.90
12303;DHT22;6214;48.012;7.862;2022-11-20T14:57:32;10.90;99.90
12303;DHT22;6214;48.012;7.862;2022-11-20T15:00:21;10.80;99.90
12303;DHT22;6214;48.012;7.862;2022-11-20T15:02:50;10.70;99.90
12303;DHT22;6214;48.012;7.862;2022-11-20T15:05:19;10.60;99.90
12303;DHT22;6214;48.012;7.862;2022-11-20T15:07:51;10.60;99.90
12303;DHT22;6214;48.012;7.862;2022-11-20T15:12:54;10.70;99.90
12303;DHT22;6214;48.012;7.862;2022-11-20T15:17:57;10.70;99.90
12303;DHT22;6214;48.012;7.862;2022-11-20T15:20:30;10.70;99.90
12303;DHT22;6214;48.012;7.862;2022-11-20T15:22:58;10.80;99.90
12303;DHT22;6214;48.012;7.862;2022-11-20T15:25:25;10.80;99.90
12303;DHT22;6214;48.012;7.862;2022-11-20T15:27:56;10.70;99.90
12303;DHT22;6214;48.012;7.862;2022-11-20T15:30:23;10.80;99.90
12303;DHT22;6214;48.012;7.862;2022-11-20T15:32:51;10.80;99.90
12303;DHT22;6214;48.012;7.862;2022-11-20T15:35:18;10.80;99.90
12303;DHT22;6214;48.012;7.862;2022-11-20T15:37:45;10.80;99.90
12303;DHT22;6214;48.012;7.862;2022-11-20T15:40:12;10.80;99.90
12303;DHT22;6214;48.012;7.862;2022-11-20T15:42:39;10.80;99.90
12303;DHT22;6214;48.012;7.862;2022-11-20T15:45:29;10.80;99.90
12303;DHT22;6214;48.012;7.862;2022-11-20T15:47:57;10.80;99.90
12303;DHT22;6214;48.012;7.862;2022-11-20T15:50:29;10.80;99.90
12303;DHT22;6214;48.012;7.862;2022-11-20T15:52:56;10.70;99.90
12303;DHT22;6214;48.012;7.862;2022-11-20T15:55:24;10.60;99.90
12303;DHT22;6214;48.012;7.862;2022-11-20T15:57:51;10.60;99.90
12303;DHT22;6214;48.012;7.862;2022-11-20T16:00:18;10.60;99.90
12303;DHT22;6214;48.012;7.862;2022-11-20T16:02:49;10.50;99.90
12303;DHT22;6214;48.012;7.862;2022-11-20T16:05:18;10.50;99.90
12303;DHT22;6214;48.012;7.862;2022-11-20T16:07:44;10.50;99.90
12303;DHT22;6214;48.012;7.862;2022-11-20T16:10:11;10.50;99.90
12303;DHT22;6214;48.012;7.862;2022-11-20T16:12:38;10.60;99.90
12303;DHT22;6214;48.012;7.862;2022-11-20T16:15:24;10.60;99.90
12303;DHT22;6214;48.012;7.862;2022-11-20T16:18:11;10.60;99.90
12303;DHT22;6214;48.012;7.862;2022-11-20T16:20:38;10.60;99.90
12303;DHT22;6214;48.012;7.862;2022-11-20T16:23:06;10.60;99.90
12303;DHT22;6214;48.012;7.862;2022-11-20T16:25:33;10.50;99.90
12303;DHT22;6214;48.012;7.862;2022-11-20T16:28:00;10.60;99.90
12303;DHT22;6214;48.012;7.862;2022-11-20T16:30:27;10.70;99.90
12303;DHT22;6214;48.012;7.862;2022-11-20T16:32:55;10.60;99.90
12303;DHT22;6214;48.012;7.862;2022-11-20T16:35:21;10.60;99.90
12303;DHT22;6214;48.012;7.862;2022-11-20T16:37:49;10.60;99.90
12303;DHT22;6214;48.012;7.862;2022-11-20T16:40:16;10.60;99.90
12303;DHT22;6214;48.012;7.862;2022-11-20T16:42:43;10.60;99.90
12303;DHT22;6214;48.012;7.862;2022-11-20T16:45:10;10.70;99.90
12303;DHT22;6214;48.012;7.862;2022-11-20T16:47:37;10.70;99.90
12303;DHT22;6214;48.012;7.862;2022-11-20T16:50:05;10.60;99.90
12303;DHT22;6214;48.012;7.862;2022-11-20T16:52:32;10.60;99.90
12303;DHT22;6214;48.012;7.862;2022-11-20T16:54:59;10.60;99.90
12303;DHT22;6214;48.012;7.862;2022-11-20T16:57:30;10.60;99.90
12303;DHT22;6214;48.012;7.862;2022-11-20T16:59:59;10.60;99.90
12303;DHT22;6214;48.012;7.862;2022-11-20T17:02:28;10.60;99.90
12303;DHT22;6214;48.012;7.862;2022-11-20T17:04:55;10.60;99.90
12303;DHT22;6214;48.012;7.862;2022-11-20T17:07:22;10.70;99.90
12303;DHT22;6214;48.012;7.862;2022-11-20T17:09:49;10.70;99.90
12303;DHT22;6214;48.012;7.862;2022-11-20T17:12:16;10.60;99.90
12303;DHT22;6214;48.012;7.862;2022-11-20T17:14:43;10.50;99.90
12303;DHT22;6214;48.012;7.862;2022-11-20T17:17:10;10.50;99.90
12303;DHT22;6214;48.012;7.862;2022-11-20T17:19:37;10.50;99.90
12303;DHT22;6214;48.012;7.862;2022-11-20T17:22:04;10.50;99.90
12303;DHT22;6214;48.012;7.862;2022-11-20T17:24:31;10.40;99.90
12303;DHT22;6214;48.012;7.862;2022-11-20T17:26:59;10.40;99.90
12303;DHT22;6214;48.012;7.862;2022-11-20T17:29:26;10.40;99.90
12303;DHT22;6214;48.012;7.862;2022-11-20T17:31:53;10.40;99.90
12303;DHT22;6214;48.012;7.862;2022-11-20T17:34:20;10.40;99.90
12303;DHT22;6214;48.012;7.862;2022-11-20T17:36:48;10.40;99.90
12303;DHT22;6214;48.012;7.862;2022-11-20T17:39:16;10.40;99.90
12303;DHT22;6214;48.012;7.862;2022-11-20T17:41:43;10.40;99.90
12303;DHT22;6214;48.012;7.862;2022-11-20T17:44:11;10.40;99.90
12303;DHT22;6214;48.012;7.862;2022-11-20T17:46:39;10.30;99.90
12303;DHT22;6214;48.012;7.862;2022-11-20T17:49:06;10.40;99.90
12303;DHT22;6214;48.012;7.862;2022-11-20T17:51:34;10.40;99.90
12303;DHT22;6214;48.012;7.862;2022-11-20T17:54:03;10.30;99.90
12303;DHT22;6214;48.012;7.862;2022-11-20T17:56:34;10.30;99.90
12303;DHT22;6214;48.012;7.862;2022-11-20T17:59:20;10.40;99.90
12303;DHT22;6214;48.012;7.862;2022-11-20T18:01:48;10.30;99.90
12303;DHT22;6214;48.012;7.862;2022-11-20T18:04:15;10.10;99.90